Airfield :
LOGIN :

Register | Disclaimer

   EN    FR    IT 

 










Legend :    VFR   Marginal VFR   IFR   Intensive IFR   Very Intensive IFR
Visi :
Ceiling :
>= 8 km
>= 3000ft
5 to 8 km
1000 to 3000 ft
1500m to 5 km
500 to 1000 ft
800 to 1500m
200 to 500 ft
< 800m
< 200 ft
Symbols :   Thunderstorms  Fog  Heavy snow  Heavy precipitations  Wind > 20 kt
SIGMETs :     Misc.  Thunderstorms  Icing  Turbulence  Mountain Waves  Volcanic Ashes






- Airport Elevation : 276 ft
- IATA code : RBA


GMME - Rabat

CURRENT METAR :
  • 281000Z 16003KT 120V220 5000 NSC 18/11 Q1020 NOSIG

EXPIRED METARs :
  • 280930Z 00000KT 050V210 5000 NSC 16/11 Q1020 NOSIG
  • 280900Z 00000KT 5000 NSC 13/11 Q1020 NOSIG
  • 280830Z 18003KT 140V250 5000 FEW016 11/11 Q1020 NOSIG
  • 280800Z 19003KT 5000 FEW016 08/08 Q1020 NOSIG
  • 280730Z 00000KT 5000 FEW016 05/05 Q1020 NOSIG

TAF TAF GMME
Valid from the 28 at 06:00 until the 29 at 12:00 UTC


280500Z 2806/2912 VRB02KT 5000 SCT020
TEMPO 2810/2820 32012KT 8000 NSC



MET'MAP, your aeronautical weather chart ! - Copyright ORBIFLY December 2007 - Disclaimer

ORBIFLY MET'MAP TEAM :

Programming & Development : Alexandra Zaïnal
Concept & original design : Baudouin d'Aumeries
Assistance for programming : Marc-Olivier Méhu
Technical & hardware support : Manuel Goepfert

Contact : metmap@orbifly.com




SOURCES & CREDITS :

   NOAA